Time;durP1;ratioP1;P1;durP2;ratioP2;P2;SDS_P1;SDS_P2;PMS_P1;PMS_P2;Temp;Humidity;BMP_temperature;BMP_pressure;BME280_temperature;BME280_humidity;BME280_pressure;Samples;Min_cycle;Max_cycle;Signal;HPM_P1;HPM_P2
2024/01/16 05:32:35;;;;;;;;;23.00;19.00;;;;;10.69;35.35;100744.94;5005990;28;46514;-70
2024/01/16 05:35:00;;;;;;;;;24.00;19.25;;;;;10.73;35.06;100755.44;5014845;28;45250;-70
2024/01/16 05:37:26;;;;;;;;;20.75;17.75;;;;;10.76;35.69;100767.84;5014816;28;46306;-70
2024/01/16 05:39:51;;;;;;;;;27.50;23.75;;;;;10.77;35.59;100773.16;5014631;28;45465;-69
2024/01/16 05:42:17;;;;;;;;;21.00;21.00;;;;;10.73;35.62;100765.28;4997034;28;59392;-71
2024/01/16 05:44:42;;;;;;;;;20.50;18.00;;;;;10.72;35.21;100756.38;5013254;28;45471;-69
2024/01/16 05:47:07;;;;;;;;;22.25;20.00;;;;;10.68;35.31;100748.56;5014776;28;57901;-70
2024/01/16 05:49:33;;;;;;;;;22.00;18.00;;;;;10.73;35.12;100754.56;5014475;28;45452;-70
2024/01/16 05:51:58;;;;;;;;;17.75;17.75;;;;;10.73;35.34;100750.09;5015718;28;45296;-71
2024/01/16 05:54:24;;;;;;;;;17.25;17.25;;;;;10.73;35.25;100751.88;5015368;28;45408;-70
2024/01/16 05:56:49;;;;;;;;;23.00;21.00;;;;;10.64;35.40;100739.78;5015027;28;51551;-70
2024/01/16 05:59:15;;;;;;;;;26.00;21.25;;;;;10.68;35.31;100753.94;5014881;28;45332;-71
2024/01/16 06:01:41;;;;;;;;;23.25;21.50;;;;;10.54;35.54;100749.22;5015007;28;45482;-70
2024/01/16 06:04:06;;;;;;;;;25.50;21.25;;;;;10.46;35.73;100741.50;5014861;28;45379;-71
2024/01/16 06:06:31;;;;;;;;;27.25;27.25;;;;;10.40;36.27;100733.75;5019327;28;52678;-70
2024/01/16 06:08:59;;;;;;;;;29.25;27.00;;;;;10.41;35.87;100742.66;5014090;28;45375;-70
2024/01/16 06:11:31;;;;;;;;;29.00;27.00;;;;;10.29;36.33;100740.53;5015238;28;45288;-71
2024/01/16 06:13:57;;;;;;;;;30.00;26.67;;;;;10.24;36.22;100738.06;5014678;28;45201;-71
2024/01/16 06:16:23;;;;;;;;;27.33;27.00;;;;;10.26;36.53;100732.63;5014520;28;46152;-71
2024/01/16 06:18:48;;;;;;;;;23.67;23.00;;;;;10.21;37.00;100739.03;5014180;28;45542;-72
2024/01/16 06:21:14;;;;;;;;;23.67;23.67;;;;;10.09;37.22;100733.34;5012991;28;53403;-70
2024/01/16 06:23:39;;;;;;;;;34.33;33.67;;;;;10.07;37.07;100735.22;5014164;28;45459;-71
2024/01/16 06:26:07;;;;;;;;;28.33;28.33;;;;;10.09;37.37;100733.34;5014437;28;45277;-70
2024/01/16 06:28:33;;;;;;;;;30.67;29.00;;;;;10.14;37.03;100747.38;5008842;28;45542;-70
2024/01/16 06:30:58;;;;;;;;;29.67;29.00;;;;;10.07;37.14;100744.13;5010455;28;45438;-70
2024/01/16 06:33:23;;;;;;;;;29.00;29.00;;;;;10.07;37.42;100743.25;5034154;28;45296;-71
2024/01/16 06:35:49;;;;;;;;;25.33;25.33;;;;;10.04;37.58;100728.16;5030726;28;58466;-70
2024/01/16 06:38:14;;;;;;;;;21.33;19.00;;;;;10.05;37.14;100721.88;5030725;28;53112;-75
2024/01/16 06:40:39;;;;;;;;;34.00;30.00;;;;;10.11;37.96;100744.88;5034478;28;45492;-75
2024/01/16 06:43:06;;;;;;;;;25.33;22.33;;;;;9.85;38.26;100724.56;5032452;28;51722;-75
2024/01/16 06:45:31;;;;;;;;;25.67;24.00;;;;;10.00;38.54;100750.69;5023567;28;46248;-77
2024/01/16 06:47:56;;;;;;;;;27.33;26.00;;;;;10.07;37.84;100749.47;5033857;28;45392;-72
2024/01/16 06:50:22;;;;;;;;;26.00;25.33;;;;;9.97;38.43;100755.28;5033452;28;45902;-76
2024/01/16 06:52:47;;;;;;;;;24.67;23.00;;;;;9.91;38.47;100755.56;5033712;28;50937;-78
2024/01/16 06:55:13;;;;;;;;;25.67;25.67;;;;;9.93;38.53;100725.13;5034442;28;46086;-76
2024/01/16 06:57:38;;;;;;;;;31.75;25.50;;;;;10.12;38.41;100752.81;5033433;28;45472;-76
2024/01/16 07:00:07;;;;;;;;;21.25;20.50;;;;;10.13;38.14;100745.66;5026097;28;53086;-76
2024/01/16 07:02:32;;;;;;;;;23.00;22.00;;;;;10.13;37.95;100740.28;5031819;28;45574;-77
2024/01/16 07:04:58;;;;;;;;;23.00;21.50;;;;;10.26;38.06;100757.63;5034268;28;46203;-78
2024/01/16 07:07:24;;;;;;;;;21.00;20.00;;;;;10.27;37.53;100753.13;5037635;28;45418;-77
2024/01/16 07:09:50;;;;;;;;;18.25;15.50;;;;;10.15;37.96;100738.41;5033070;28;45811;-76
2024/01/16 07:12:15;;;;;;;;;22.50;22.50;;;;;10.18;37.79;100741.88;5031210;28;45602;-76
2024/01/16 07:14:40;;;;;;;;;26.50;19.25;;;;;10.32;37.61;100757.34;5033063;28;45867;-77
2024/01/16 07:17:07;;;;;;;;;24.50;21.25;;;;;10.38;37.53;100759.72;5031750;28;45371;-77
2024/01/16 07:19:33;;;;;;;;;20.00;18.00;;;;;10.29;37.44;100754.81;5034657;28;45412;-77
2024/01/16 07:21:58;;;;;;;;;19.25;18.75;;;;;10.39;37.47;100763.28;5035598;28;45399;-76
2024/01/16 07:24:24;;;;;;;;;18.25;18.25;;;;;10.18;37.82;100741.00;5034908;28;60184;-76
2024/01/16 07:26:49;;;;;;;;;22.50;22.50;;;;;9.95;38.21;100741.13;5016881;28;45812;-78
2024/01/16 07:29:15;;;;;;;;;20.00;16.00;;;;;10.11;38.00;100756.47;5034881;28;45477;-77
2024/01/16 07:31:41;;;;;;;;;27.00;26.25;;;;;10.10;38.20;100760.06;5033523;28;54262;-79
2024/01/16 07:34:06;;;;;;;;;24.25;19.75;;;;;10.12;38.50;100752.81;5033867;28;46282;-77
2024/01/16 07:36:31;;;;;;;;;25.75;24.00;;;;;10.12;38.37;100751.97;5033739;28;45258;-78
2024/01/16 07:38:57;;;;;;;;;21.75;21.00;;;;;10.16;38.48;100758.91;5034236;28;45755;-73
2024/01/16 07:41:22;;;;;;;;;20.75;17.25;;;;;10.15;38.04;100743.78;5020240;28;45713;-71
2024/01/16 07:43:48;;;;;;;;;22.00;20.00;;;;;10.03;37.88;100741.66;5033624;28;46014;-74
2024/01/16 07:46:13;;;;;;;;;22.25;18.00;;;;;10.06;38.53;100746.84;5032876;28;57604;-74
2024/01/16 07:48:39;;;;;;;;;26.00;22.00;;;;;10.02;38.81;100750.63;5035586;28;47129;-71
2024/01/16 07:51:05;;;;;;;;;22.25;19.50;;;;;9.74;39.27;100737.53;5035893;28;45387;-73
2024/01/16 07:53:31;;;;;;;;;17.75;13.50;;;;;9.70;39.17;100738.59;5034319;28;45306;-71
2024/01/16 07:55:57;;;;;;;;;23.75;21.75;;;;;9.72;39.09;100761.69;5034009;28;45310;-71
2024/01/16 07:58:22;;;;;;;;;22.00;19.25;;;;;9.68;39.28;100754.75;5033656;28;45333;-73
2024/01/16 08:00:49;;;;;;;;;21.50;18.00;;;;;9.73;38.74;100758.09;5033477;28;45446;-74
2024/01/16 08:03:14;;;;;;;;;23.50;18.75;;;;;9.85;38.84;100765.63;5033638;28;46184;-72
2024/01/16 08:05:40;;;;;;;;;19.75;17.50;;;;;9.94;38.43;100772.38;5034042;28;45205;-72
2024/01/16 08:08:09;;;;;;;;;23.75;18.75;;;;;9.99;38.53;100766.81;5032997;28;45448;-74
2024/01/16 08:10:34;;;;;;;;;21.00;20.50;;;;;9.96;38.55;100765.13;5031436;28;45419;-71
2024/01/16 08:12:59;;;;;;;;;29.75;22.25;;;;;9.97;38.56;100764.19;5036056;28;50685;-74
2024/01/16 08:15:25;;;;;;;;;24.00;21.67;;;;;9.94;38.94;100750.97;5036138;28;45325;-73
2024/01/16 08:17:51;;;;;;;;;23.25;21.00;;;;;10.01;38.52;100765.81;5036011;28;45509;-73
2024/01/16 08:20:16;;;;;;;;;27.75;21.50;;;;;9.91;38.39;100751.06;5036128;28;45287;-74
2024/01/16 08:22:41;;;;;;;;;13.75;13.50;;;;;9.94;38.97;100764.34;5036961;28;45426;-74
2024/01/16 08:25:08;;;;;;;;;21.00;21.00;;;;;9.88;38.60;100760.09;5036425;28;45350;-75
2024/01/16 08:27:34;;;;;;;;;20.33;19.00;;;;;10.02;38.84;100766.69;5037078;28;45466;-73
2024/01/16 08:30:00;;;;;;;;;24.50;24.50;;;;;10.10;38.22;100759.19;5036589;28;45451;-75
2024/01/16 08:32:26;;;;;;;;;26.75;24.00;;;;;10.00;38.30;100758.72;5036364;28;45251;-73
2024/01/16 08:34:52;;;;;;;;;17.00;17.00;;;;;10.00;38.49;100768.56;5036102;28;45428;-74
2024/01/16 08:37:17;;;;;;;;;22.50;22.00;;;;;10.03;38.78;100787.19;5036679;28;45752;-75
2024/01/16 08:39:43;;;;;;;;;18.50;18.50;;;;;9.98;38.62;100789.16;5036122;28;45463;-75
2024/01/16 08:42:11;;;;;;;;;30.50;28.00;;;;;9.91;38.89;100756.44;5023919;28;46472;-75
2024/01/16 08:44:40;;;;;;;;;29.25;27.25;;;;;10.03;38.40;100781.84;5035511;28;45466;-72
2024/01/16 08:47:06;;;;;;;;;22.00;19.50;;;;;10.05;38.52;100786.16;5034528;28;45539;-74
2024/01/16 08:49:32;;;;;;;;;37.00;26.33;;;;;10.04;38.30;100775.50;5030701;28;45265;-74
2024/01/16 08:51:58;;;;;;;;;25.67;23.33;;;;;10.14;38.23;100764.34;5024055;28;47085;-74
2024/01/16 08:54:23;;;;;;;;;30.00;26.00;;;;;10.09;38.44;100760.13;5031680;28;45592;-74
2024/01/16 08:56:49;;;;;;;;;30.00;26.33;;;;;10.18;38.29;100757.97;5030393;28;45434;-74
2024/01/16 08:59:14;;;;;;;;;35.00;28.67;;;;;10.09;38.17;100736.03;5033714;28;45800;-74
2024/01/16 09:01:41;;;;;;;;;33.33;31.00;;;;;10.17;38.18;100748.19;5031134;28;50427;-74
2024/01/16 09:04:07;;;;;;;;;45.33;41.00;;;;;10.28;38.21;100750.38;5035801;28;45447;-74
2024/01/16 09:06:32;;;;;;;;;44.33;40.00;;;;;10.33;38.23;100752.84;5040601;28;45462;-75
2024/01/16 09:08:58;;;;;;;;;55.33;44.67;;;;;10.40;38.32;100752.50;5018092;28;46463;-76
2024/01/16 09:11:23;;;;;;;;;56.00;49.00;;;;;10.41;37.99;100745.34;5036119;28;46565;-75
2024/01/16 09:13:48;;;;;;;;;64.33;51.33;;;;;10.43;37.75;100759.53;5035997;28;45342;-74
2024/01/16 09:16:14;;;;;;;;;62.67;50.67;;;;;10.34;37.78;100744.75;5036307;28;45269;-75
2024/01/16 09:18:40;;;;;;;;;66.00;55.33;;;;;10.39;37.31;100747.19;5035483;28;45224;-74
2024/01/16 09:21:06;;;;;;;;;64.33;51.33;;;;;10.38;37.67;100762.41;5035959;28;45208;-74
2024/01/16 09:23:31;;;;;;;;;68.33;56.67;;;;;10.35;37.58;100754.53;5035256;28;45310;-74
2024/01/16 09:25:56;;;;;;;;;59.00;51.67;;;;;10.28;37.32;100745.03;5018342;28;45360;-75
2024/01/16 09:28:22;;;;;;;;;70.67;56.00;;;;;10.35;37.41;100749.16;5036033;28;45214;-73
2024/01/16 09:30:47;;;;;;;;;78.67;59.33;;;;;10.38;37.61;100754.38;5035883;28;45158;-75
2024/01/16 09:33:13;;;;;;;;;70.00;55.00;;;;;10.37;37.60;100749.97;5035554;28;45352;-74
2024/01/16 09:35:38;;;;;;;;;70.00;56.00;;;;;10.32;37.67;100737.69;5017689;28;45508;-74
2024/01/16 09:38:07;;;;;;;;;78.00;59.33;;;;;10.42;37.67;100749.75;5035670;28;45434;-75
2024/01/16 09:40:32;;;;;;;;;71.33;59.33;;;;;10.36;37.50;100740.19;5010142;28;46225;-74
2024/01/16 09:42:57;;;;;;;;;71.67;57.00;;;;;10.41;37.40;100732.81;5028967;28;45325;-75
2024/01/16 09:45:24;;;;;;;;;70.00;55.67;;;;;10.49;37.49;100738.69;5023052;28;45480;-75
2024/01/16 09:47:51;;;;;;;;;69.33;58.33;;;;;10.50;37.36;100718.13;5035403;28;45520;-75
2024/01/16 09:50:18;;;;;;;;;84.33;63.00;;;;;10.53;37.39;100726.91;5017110;28;46247;-74
2024/01/16 09:52:47;;;;;;;;;80.67;62.67;;;;;10.59;37.44;100729.28;5035458;28;45416;-75
2024/01/16 09:55:14;;;;;;;;;83.67;65.00;;;;;10.40;37.47;100689.97;5017721;28;45483;-76
2024/01/16 09:57:40;;;;;;;;;78.33;62.67;;;;;10.60;37.18;100716.75;5035345;28;45345;-75
2024/01/16 10:00:11;;;;;;;;;71.00;58.67;;;;;10.66;36.62;100729.00;5035500;28;45450;-77
2024/01/16 10:02:40;;;;;;;;;70.67;57.67;;;;;10.74;36.69;100732.19;5035188;28;45510;-74
2024/01/16 10:05:08;;;;;;;;;68.67;56.00;;;;;10.69;36.67;100723.50;5035737;28;45447;-76
2024/01/16 10:07:35;;;;;;;;;70.33;57.67;;;;;10.73;36.08;100714.34;5038671;28;45277;-75
2024/01/16 10:10:00;;;;;;;;;71.33;55.33;;;;;10.79;36.13;100727.50;5035355;28;45486;-75
2024/01/16 10:12:26;;;;;;;;;58.33;48.67;;;;;10.78;35.59;100717.72;5035122;28;45380;-75
2024/01/16 10:14:53;;;;;;;;;56.67;47.33;;;;;10.84;35.96;100725.47;5034921;28;45407;-76
2024/01/16 10:17:19;;;;;;;;;70.33;56.33;;;;;10.84;35.75;100714.72;5035135;28;45194;-76
2024/01/16 10:19:56;;;;;;;;;55.33;49.33;;;;;10.94;35.29;100724.09;5034911;28;46153;-74
2024/01/16 10:22:24;;;;;;;;;54.67;47.00;;;;;10.89;35.56;100704.63;5017297;28;45291;-76
2024/01/16 10:25:03;;;;;;;;;62.67;49.00;;;;;11.04;35.16;100713.78;5035639;28;45399;-76
2024/01/16 10:27:30;;;;;;;;;59.00;48.67;;;;;11.03;35.24;100704.88;5017464;28;46470;-75
2024/01/16 10:29:57;;;;;;;;;60.67;50.67;;;;;11.20;35.24;100718.34;5017117;28;47846;-74
2024/01/16 10:32:30;;;;;;;;;60.33;48.00;;;;;11.27;35.24;100713.53;5034469;28;45355;-74
2024/01/16 10:35:04;;;;;;;;;65.33;52.33;;;;;11.27;35.34;100700.09;5016426;28;45324;-76
2024/01/16 10:37:30;;;;;;;;;59.00;48.67;;;;;11.28;34.66;100707.22;5034715;28;45331;-76
2024/01/16 10:39:56;;;;;;;;;60.67;51.00;;;;;11.37;34.46;100720.19;5034224;28;45328;-75
2024/01/16 10:42:21;;;;;;;;;66.33;55.00;;;;;11.34;34.47;100705.09;5034905;28;45306;-74
2024/01/16 10:44:54;;;;;;;;;58.67;49.33;;;;;11.50;34.58;100713.25;5033699;28;45492;-75
2024/01/16 10:47:22;;;;;;;;;55.67;47.00;;;;;11.57;34.39;100714.66;5034463;28;45323;-73
2024/01/16 10:49:47;;;;;;;;;56.33;47.00;;;;;11.55;34.46;100710.34;5034056;28;46300;-74
2024/01/16 10:52:14;;;;;;;;;58.67;50.33;;;;;11.50;34.08;100696.25;5034770;28;45616;-76
2024/01/16 10:54:42;;;;;;;;;57.00;42.33;;;;;11.58;33.47;100696.75;5034660;28;45379;-74
2024/01/16 10:57:08;;;;;;;;;52.33;44.00;;;;;11.58;33.64;100670.75;5034455;28;45592;-75
2024/01/16 10:59:55;;;;;;;;;36.33;35.67;;;;;11.74;33.87;100676.22;5016103;28;45918;-76
2024/01/16 11:02:29;;;;;;;;;46.67;43.00;;;;;11.88;33.71;100684.47;5034465;28;45344;-74
2024/01/16 11:04:56;;;;;;;;;58.00;43.33;;;;;11.96;33.35;100684.06;5034356;28;45228;-74
2024/01/16 11:07:26;;;;;;;;;61.00;49.67;;;;;11.95;33.60;100664.41;5021123;28;45666;-74
2024/01/16 11:09:52;;;;;;;;;59.00;47.33;;;;;12.24;33.31;100676.28;5016242;28;46322;-74
2024/01/16 11:12:22;;;;;;;;;57.00;47.33;;;;;12.29;33.10;100679.59;5034095;28;45478;-74
2024/01/16 11:14:51;;;;;;;;;51.00;43.00;;;;;12.41;33.30;100675.38;5035067;28;45522;-75
2024/01/16 11:17:20;;;;;;;;;64.00;50.00;;;;;12.42;32.75;100661.81;5034376;28;45344;-73
2024/01/16 11:19:48;;;;;;;;;53.00;46.00;;;;;12.63;32.54;100677.75;5034824;28;45501;-74
2024/01/16 11:22:15;;;;;;;;;47.00;41.67;;;;;12.64;32.08;100655.28;5036398;28;45390;-75
2024/01/16 11:24:42;;;;;;;;;54.00;44.33;;;;;12.92;32.45;100660.84;5035819;28;45419;-75
2024/01/16 11:27:08;;;;;;;;;55.33;44.33;;;;;13.55;31.39;100647.31;5035305;28;45581;-74
2024/01/16 11:29:35;;;;;;;;;47.67;42.00;;;;;14.68;28.95;100651.97;5017294;28;48303;-75
2024/01/16 11:32:03;;;;;;;;;51.00;45.00;;;;;15.77;27.28;100651.88;5017880;28;45778;-74
2024/01/16 11:34:41;;;;;;;;;43.00;38.25;;;;;17.17;26.69;100647.22;5016613;28;45467;-75
2024/01/16 11:37:12;;;;;;;;;42.25;37.75;;;;;18.50;24.67;100642.19;5016044;28;46499;-75
2024/01/16 11:39:37;;;;;;;;;38.25;32.75;;;;;19.44;23.88;100649.84;5034364;28;45252;-73
2024/01/16 11:42:03;;;;;;;;;41.50;34.75;;;;;20.12;22.38;100642.22;5033439;28;48541;-76
2024/01/16 11:44:50;;;;;;;;;24.75;21.50;;;;;20.37;21.77;100648.13;5033185;28;45440;-73
2024/01/16 11:47:23;;;;;;;;;20.00;20.00;;;;;20.29;21.69;100647.03;5035340;28;45549;-73
2024/01/16 11:50:08;;;;;;;;;25.75;23.00;;;;;19.31;22.32;100642.84;5037044;28;45357;-75
2024/01/16 11:52:44;;;;;;;;;17.50;17.25;;;;;18.66;22.45;100652.72;5037450;28;45379;-74
2024/01/16 11:55:32;;;;;;;;;9.00;9.00;;;;;18.11;23.03;100640.81;5037774;28;45494;-73
2024/01/16 11:58:02;;;;;;;;;0.50;0.50;;;;;17.69;23.20;100628.72;5019413;28;45329;-75
2024/01/16 12:00:32;;;;;;;;;1.00;1.00;;;;;17.26;24.11;100630.28;5037365;28;45384;-76
2024/01/16 12:03:05;;;;;;;;;1.75;1.75;;;;;16.87;24.77;100626.81;5037186;28;45524;-74
2024/01/16 12:05:31;;;;;;;;;8.50;8.00;;;;;16.42;25.45;100630.13;5041123;28;45343;-74
2024/01/16 12:07:57;;;;;;;;;10.50;10.50;;;;;15.89;25.93;100619.47;5037747;28;45535;-74
2024/01/16 12:10:24;;;;;;;;;12.50;10.00;;;;;15.63;26.43;100616.84;5037212;28;45836;-74
2024/01/16 12:12:51;;;;;;;;;9.50;8.75;;;;;15.32;26.32;100618.88;5019121;28;45258;-74
2024/01/16 12:15:20;;;;;;;;;10.50;10.50;;;;;14.98;27.14;100609.47;5037109;28;45259;-74
2024/01/16 12:17:56;;;;;;;;;12.25;11.75;;;;;14.92;27.23;100625.22;5036640;28;45922;-73
2024/01/16 12:20:22;;;;;;;;;10.25;10.25;;;;;14.69;27.60;100603.31;5036645;28;45387;-73
2024/01/16 12:22:58;;;;;;;;;9.00;7.25;;;;;14.67;27.05;100618.72;5036971;28;45543;-75
2024/01/16 12:25:25;;;;;;;;;5.00;5.00;;;;;14.55;26.88;100603.31;5037090;28;45284;-76
2024/01/16 12:28:14;;;;;;;;;12.00;11.00;;;;;14.51;27.32;100598.22;5019131;28;46502;-75
2024/01/16 12:30:40;;;;;;;;;11.50;9.75;;;;;14.28;27.22;100581.66;5036602;28;46201;-74
2024/01/16 12:33:10;;;;;;;;;14.00;11.50;;;;;13.99;27.65;100558.34;5036558;28;45329;-75
2024/01/16 12:35:36;;;;;;;;;12.50;11.75;;;;;14.01;27.91;100567.22;5036589;28;45229;-75
2024/01/16 12:38:05;;;;;;;;;13.50;13.50;;;;;14.02;27.59;100548.25;5036572;28;45603;-73
2024/01/16 12:40:31;;;;;;;;;11.00;11.00;;;;;13.97;27.57;100547.66;5035849;28;45249;-73
2024/01/16 12:42:57;;;;;;;;;3.50;3.50;;;;;13.77;28.16;100526.53;5036174;28;45501;-74
2024/01/16 12:45:23;;;;;;;;;16.25;13.00;;;;;13.91;28.13;100533.72;5018472;28;45277;-75
2024/01/16 12:47:53;;;;;;;;;15.75;13.50;;;;;13.91;28.09;100529.19;5036705;28;45592;-74
2024/01/16 12:50:23;;;;;;;;;9.25;7.25;;;;;13.85;27.85;100515.25;5036557;28;46009;-75
2024/01/16 12:52:50;;;;;;;;;7.75;7.75;;;;;13.70;27.84;100495.50;5037004;28;45287;-74
2024/01/16 12:55:16;;;;;;;;;12.50;8.25;;;;;13.92;27.82;100527.38;5036901;28;45222;-74
2024/01/16 12:57:42;;;;;;;;;6.00;6.00;;;;;13.88;26.81;100507.81;5035541;28;45461;-73
2024/01/16 13:00:25;;;;;;;;;8.00;7.00;;;;;13.91;26.99;100507.63;5035711;28;46001;-74
2024/01/16 13:02:52;;;;;;;;;5.75;5.75;;;;;13.94;27.04;100507.47;5036135;28;45288;-73
2024/01/16 13:05:18;;;;;;;;;6.00;4.50;;;;;13.99;27.13;100505.31;5038300;28;45296;-75
2024/01/16 13:07:44;;;;;;;;;10.75;7.75;;;;;13.99;27.06;100499.94;5038719;28;45166;-74
2024/01/16 13:10:18;;;;;;;;;8.00;8.00;;;;;13.91;26.82;100478.00;5036118;28;46277;-74
2024/01/16 13:12:43;;;;;;;;;8.25;8.25;;;;;14.00;27.25;100481.94;5036016;28;45261;-74
2024/01/16 13:15:10;;;;;;;;;6.00;6.00;;;;;13.92;26.04;100481.56;5018238;28;45989;-76
2024/01/16 13:17:36;;;;;;;;;7.25;7.25;;;;;13.93;25.92;100486.00;5035792;28;45408;-75
2024/01/16 13:20:04;;;;;;;;;5.00;5.00;;;;;13.90;26.57;100487.03;5017895;28;46734;-74
2024/01/16 13:22:29;;;;;;;;;6.75;6.75;;;;;13.97;26.46;100488.38;5017771;28;46067;-73
2024/01/16 13:24:55;;;;;;;;;9.75;6.50;;;;;13.99;25.99;100490.97;5036118;28;45359;-74
2024/01/16 13:27:21;;;;;;;;;8.25;7.00;;;;;13.84;26.17;100481.19;5035659;28;45405;-75
2024/01/16 13:29:46;;;;;;;;;9.00;9.00;;;;;13.74;26.43;100478.19;5017661;28;46166;-76
2024/01/16 13:32:11;;;;;;;;;11.00;10.25;;;;;13.75;26.76;100470.97;5017721;28;45309;-75
2024/01/16 13:34:38;;;;;;;;;11.00;9.00;;;;;13.81;26.84;100468.75;5035413;28;47065;-75
2024/01/16 13:37:04;;;;;;;;;10.25;10.25;;;;;13.88;27.31;100456.63;5035596;28;45384;-74
2024/01/16 13:39:34;;;;;;;;;9.00;8.00;;;;;13.95;27.00;100457.13;5035736;28;46165;-74
2024/01/16 13:41:59;;;;;;;;;10.00;10.00;;;;;13.95;26.66;100457.94;5035080;28;45324;-75
2024/01/16 13:44:25;;;;;;;;;9.00;9.00;;;;;13.90;26.83;100443.94;5034887;28;45217;-75
2024/01/16 13:46:50;;;;;;;;;10.00;9.25;;;;;14.04;27.09;100451.09;5035842;28;45508;-73
2024/01/16 13:49:15;;;;;;;;;11.50;8.00;;;;;13.99;26.63;100446.03;5017638;28;46424;-74
2024/01/16 13:51:44;;;;;;;;;12.25;12.25;;;;;13.88;26.41;100426.97;5036157;28;45435;-74
2024/01/16 13:54:10;;;;;;;;;13.00;11.00;;;;;13.76;26.53;100421.53;5036576;28;45273;-76
2024/01/16 13:56:35;;;;;;;;;14.75;14.75;;;;;13.69;26.56;100426.44;5035553;28;45678;-75
2024/01/16 13:59:00;;;;;;;;;14.25;14.25;;;;;13.69;26.94;100426.44;5016996;28;64008;-74
2024/01/16 14:01:27;;;;;;;;;12.25;11.00;;;;;13.71;27.01;100413.72;5035485;28;45339;-74
2024/01/16 14:03:53;;;;;;;;;11.50;11.25;;;;;13.73;26.98;100397.47;5017774;28;45328;-74
2024/01/16 14:06:19;;;;;;;;;15.50;13.00;;;;;13.80;27.43;100391.59;5040141;28;55857;-75
2024/01/16 14:08:45;;;;;;;;;18.25;16.00;;;;;13.89;27.66;100380.22;5035606;28;45364;-75
2024/01/16 14:11:10;;;;;;;;;26.00;22.50;;;;;13.98;28.06;100384.13;5034904;28;45233;-75
2024/01/16 14:13:37;;;;;;;;;23.75;23.75;;;;;14.02;27.61;100381.16;5035639;28;45358;-75
2024/01/16 14:16:03;;;;;;;;;23.25;22.25;;;;;14.08;27.48;100387.97;5017293;28;47690;-73
2024/01/16 14:18:28;;;;;;;;;26.00;24.00;;;;;13.98;27.65;100379.59;5017299;28;47556;-75
2024/01/16 14:20:53;;;;;;;;;26.50;23.00;;;;;14.05;27.48;100385.44;5034159;28;56721;-76
2024/01/16 14:23:20;;;;;;;;;21.75;21.75;;;;;14.11;27.47;100371.59;5035119;28;45378;-73
2024/01/16 14:25:46;;;;;;;;;37.50;26.50;;;;;14.21;28.09;100377.22;5035021;28;45391;-74
2024/01/16 14:28:12;;;;;;;;;29.50;27.50;;;;;14.47;27.93;100397.06;5035057;28;46049;-75
2024/01/16 14:30:38;;;;;;;;;28.50;25.75;;;;;14.73;27.67;100393.47;5034655;28;45372;-73
2024/01/16 14:33:06;;;;;;;;;21.75;20.00;;;;;14.95;27.42;100390.16;5035243;28;45352;-74
2024/01/16 14:35:32;;;;;;;;;32.00;32.00;;;;;15.31;26.83;100386.72;5034575;28;46008;-74
2024/01/16 14:37:57;;;;;;;;;32.25;29.25;;;;;15.66;26.10;100393.16;5034600;28;46828;-75
2024/01/16 14:40:25;;;;;;;;;27.50;25.50;;;;;15.82;25.85;100391.06;5028480;28;53083;-73
2024/01/16 14:42:53;;;;;;;;;24.50;23.75;;;;;16.06;25.62;100382.16;5027980;28;45423;-74
2024/01/16 14:45:22;;;;;;;;;25.50;25.25;;;;;16.34;25.21;100397.16;5034666;28;45455;-76
2024/01/16 14:47:49;;;;;;;;;21.75;21.00;;;;;16.51;24.99;100378.66;5016308;28;46447;-74
2024/01/16 14:50:16;;;;;;;;;19.75;19.75;;;;;16.59;24.61;100383.50;5034834;28;45628;-74
2024/01/16 14:52:42;;;;;;;;;7.50;5.50;;;;;16.80;24.46;100378.31;5034774;28;45321;-77
2024/01/16 14:55:07;;;;;;;;;19.50;18.25;;;;;16.80;23.89;100356.66;5035097;28;45322;-75
2024/01/16 14:57:37;;;;;;;;;17.00;15.75;;;;;16.91;23.59;100371.09;5034605;28;45386;-75
2024/01/16 15:00:04;;;;;;;;;17.50;17.50;;;;;17.06;23.73;100374.44;5034746;28;45281;-74
2024/01/16 15:02:29;;;;;;;;;11.25;11.25;;;;;16.92;23.13;100366.53;5034518;28;45344;-74
2024/01/16 15:04:55;;;;;;;;;14.75;13.00;;;;;16.94;23.74;100372.69;5034745;28;45442;-75
2024/01/16 15:07:20;;;;;;;;;11.25;10.00;;;;;16.79;23.40;100371.16;5039102;28;45319;-74
2024/01/16 15:09:45;;;;;;;;;12.50;12.50;;;;;16.53;23.69;100375.84;5034376;28;53982;-75
2024/01/16 15:12:11;;;;;;;;;12.25;11.00;;;;;16.39;24.03;100363.38;5034155;28;50599;-74
2024/01/16 15:14:36;;;;;;;;;12.00;10.00;;;;;16.22;24.03;100347.56;5034723;28;45396;-75
2024/01/16 15:17:02;;;;;;;;;13.50;10.50;;;;;16.09;24.50;100358.44;5034309;28;45596;-74
2024/01/16 15:19:30;;;;;;;;;13.50;9.25;;;;;15.94;24.46;100369.53;5034221;28;45735;-75
2024/01/16 15:21:56;;;;;;;;;10.50;10.50;;;;;15.73;24.71;100389.06;5035823;28;45178;-75
2024/01/16 15:24:28;;;;;;;;;10.50;10.00;;;;;15.50;24.50;100371.75;5038241;28;45183;-75
2024/01/16 15:26:57;;;;;;;;;15.25;13.25;;;;;15.27;24.86;100382.50;5019738;28;47462;-74
2024/01/16 15:29:29;;;;;;;;;15.00;11.50;;;;;15.02;25.50;100376.13;5037985;28;45311;-75
2024/01/16 15:31:56;;;;;;;;;11.75;11.75;;;;;14.83;25.60;100375.69;5037238;28;45490;-74
2024/01/16 15:34:22;;;;;;;;;17.00;14.75;;;;;14.65;26.22;100363.44;5037441;28;45375;-73
2024/01/16 15:36:47;;;;;;;;;17.75;16.50;;;;;14.51;26.45;100363.53;5037599;28;46091;-74
2024/01/16 15:39:17;;;;;;;;;18.00;17.00;;;;;14.33;26.67;100362.91;5037733;28;45302;-75
2024/01/16 15:41:45;;;;;;;;;18.00;16.50;;;;;14.27;27.04;100374.13;5036955;28;45479;-75
2024/01/16 15:44:11;;;;;;;;;24.75;22.00;;;;;13.96;27.07;100349.19;5036706;28;45312;-76
2024/01/16 15:46:59;;;;;;;;;22.00;19.50;;;;;13.97;27.37;100361.69;5037063;28;46097;-75
2024/01/16 15:49:25;;;;;;;;;25.75;22.25;;;;;13.84;27.67;100341.94;5019140;28;46184;-74
2024/01/16 15:51:51;;;;;;;;;22.50;22.50;;;;;13.83;27.94;100348.28;5037789;28;45323;-73
2024/01/16 15:54:16;;;;;;;;;26.25;25.25;;;;;13.75;28.04;100342.53;5037241;28;45582;-74
2024/01/16 15:56:42;;;;;;;;;27.00;25.50;;;;;13.63;28.45;100328.03;5037208;28;45749;-74
2024/01/16 15:59:07;;;;;;;;;34.25;30.50;;;;;13.69;28.61;100336.69;5037129;28;45502;-74
2024/01/16 16:01:33;;;;;;;;;25.50;23.75;;;;;13.69;29.20;100342.94;5037247;28;45408;-74
2024/01/16 16:03:58;;;;;;;;;34.25;23.75;;;;;13.54;29.20;100341.22;5018837;28;46047;-74
2024/01/16 16:06:24;;;;;;;;;30.00;26.25;;;;;13.31;29.42;100331.94;5041891;28;45460;-76
2024/01/16 16:08:49;;;;;;;;;21.75;20.00;;;;;13.25;29.90;100332.31;5037165;28;45264;-72
2024/01/16 16:11:15;;;;;;;;;22.00;22.00;;;;;13.25;30.03;100324.25;5037169;28;45264;-74
2024/01/16 16:13:41;;;;;;;;;19.25;19.25;;;;;13.23;29.64;100332.41;5019110;28;45260;-74
2024/01/16 16:16:07;;;;;;;;;23.00;22.00;;;;;13.19;29.86;100338.06;5019049;28;47401;-74
2024/01/16 16:18:36;;;;;;;;;30.75;22.50;;;;;13.09;30.29;100331.53;5036286;28;58189;-74
2024/01/16 16:21:02;;;;;;;;;19.00;18.00;;;;;13.05;30.09;100343.44;5036918;28;45408;-72
2024/01/16 16:23:28;;;;;;;;;19.00;16.50;;;;;13.02;30.09;100349.88;5036737;28;45511;-72
2024/01/16 16:25:53;;;;;;;;;16.00;14.00;;;;;12.92;30.45;100347.88;5036643;28;59772;-72
2024/01/16 16:28:18;;;;;;;;;20.50;20.00;;;;;12.83;30.64;100349.28;5036714;28;45353;-74
2024/01/16 16:30:44;;;;;;;;;21.50;17.00;;;;;12.75;30.57;100341.69;5036325;28;45502;-74
2024/01/16 16:33:09;;;;;;;;;16.75;15.50;;;;;12.73;30.78;100338.22;5031409;28;45635;-74
2024/01/16 16:35:34;;;;;;;;;19.75;16.50;;;;;12.62;30.69;100329.06;5035718;28;45455;-76
2024/01/16 16:38:00;;;;;;;;;15.00;15.00;;;;;12.58;30.79;100331.09;5036571;28;51460;-75
2024/01/16 16:40:25;;;;;;;;;21.25;17.75;;;;;12.55;31.42;100333.97;5035524;28;45709;-76
2024/01/16 16:42:50;;;;;;;;;18.50;16.00;;;;;12.43;31.16;100319.44;5034240;28;59089;-76